Wil S — PBOZ — position and weather

sailwx.info

Track history (hours):
 
Tides and Currents Weather Stations Pressure Air Temp Water Temp Dewpoint Dewpoint Depression Visibility Wind Speed Wind Dir Waves Ship Positions

Wil S

Last reported at 2018-May-25 13:35 UTC. Time now 2018-Jun-25 09:47 UTC.
Position N 27°41' W 015°21'.
Warning: this ship's position is 30 days out of date.

Length 32 m; draft 3.5 m.

Type: Tow > 200 m length. MMSI: 244630433.

Date/timePositionNaut miles runAvg speedWind from/ knotsBaromVisibWave heightAir tempDewpointWater temp
2018-May-25 13:35N 27°41' W 015°21'1 5.0
2018-May-25 13:27N 27°42' W 015°21'2 5.1
2018-May-25 13:00N 27°44' W 015°20'2 5.0
2018-May-25 12:30N 27°46' W 015°19'3 5.3
2018-May-25 12:00N 27°48' W 015°18'3 5.4
2018-May-25 11:30N 27°51' W 015°17'3 5.5
2018-May-25 11:00N 27°54' W 015°17'3 5.3
2018-May-25 10:30N 27°56' W 015°17'3 5.0
2018-May-25 10:00N 27°59' W 015°17'3 5.1
2018-May-25 09:30N 28°01' W 015°18'2 4.1
2018-May-25 09:00N 28°03' W 015°18'2 3.3
2018-May-25 08:30N 28°05' W 015°20'2 3.9
2018-May-25 08:00N 28°07' W 015°21'2 3.1
2018-May-25 07:30N 28°08' W 015°20'1 1.5
2018-May-25 07:00N 28°08' W 015°19'1 1.5
2018-May-25 06:30N 28°07' W 015°18'1 2.6
2018-May-25 06:00N 28°08' W 015°18'2 3.5
2018-May-25 05:30N 28°10' W 015°17'2 3.3
2018-May-25 05:00N 28°12' W 015°17'2 3.8
2018-May-25 04:30N 28°14' W 015°17'2 4.5
2018-May-25 04:00N 28°16' W 015°16'2 3.8
2018-May-25 03:30N 28°18' W 015°16'2 3.2
2018-May-25 03:00N 28°19' W 015°15'2 3.1
2018-May-25 02:30N 28°21' W 015°15'2 3.1
2018-May-25 02:00N 28°22' W 015°14'2 3.2
2018-May-25 01:30N 28°24' W 015°14'2 3.2
2018-May-25 01:00N 28°25' W 015°14'2 3.1
2018-May-25 00:30N 28°27' W 015°13'1 3.0
2018-May-25 00:00N 28°28' W 015°13'2 3.1
2018-May-24 23:30N 28°30' W 015°12'2 3.2
2018-May-24 22:59N 28°31' W 015°12'2 3.2
2018-May-24 22:30N 28°33' W 015°11'2 3.1
2018-May-24 22:00N 28°34' W 015°10'1 2.1
2018-May-24 21:29N 28°34' W 015°09'1 2.0
2018-May-24 21:00N 28°34' W 015°08'1 1.9
2018-May-24 20:30N 28°34' W 015°07'1 1.9
2018-May-24 20:00N 28°34' W 015°06'1 1.9
2018-May-24 19:30N 28°34' W 015°05'1 1.8
2018-May-24 19:00N 28°34' W 015°04'1 1.8
2018-May-24 18:30N 28°34' W 015°03'1 1.8
2018-May-24 18:00N 28°34' W 015°02'1 1.7
2018-May-24 17:30N 28°35' W 015°01'1 2.2
2018-May-24 17:00N 28°36' W 015°00'1 2.8
2018-May-24 16:30N 28°37' W 014°60'1 2.7
2018-May-24 15:59N 28°39' W 014°59'1 2.8
2018-May-24 15:30N 28°40' W 014°59'1 2.7
2018-May-24 15:00N 28°41' W 014°59'1 2.7
2018-May-24 14:29N 28°42' W 014°58'1 2.8
2018-May-24 14:00N 28°44' W 014°58'2 2.9
2018-May-24 13:29N 28°45' W 014°56'  
2018-May-20 06:46N 36°25' W 010°47'1 4.7
2018-May-20 06:30N 36°26' W 010°46'24 5.1
2018-May-20 01:51N 36°48' W 010°35'2 5.5
2018-May-20 01:27N 36°50' W 010°33'15 5.8
2018-May-19 22:54N 37°03' W 010°25'3 5.8
2018-May-19 22:22N 37°06' W 010°23'3 5.6
2018-May-19 21:52N 37°08' W 010°22'2 5.4
2018-May-19 21:30N 37°10' W 010°20'3 5.4
2018-May-19 21:00N 37°12' W 010°19'3 5.4
2018-May-19 20:30N 37°15' W 010°18'3 5.1
2018-May-19 20:00N 37°17' W 010°16'2 5.1
2018-May-19 19:30N 37°20' W 010°15'3 5.0
2018-May-19 19:00N 37°22' W 010°15'3 5.1
2018-May-19 18:29N 37°25' W 010°15'3 5.2
2018-May-19 18:00N 37°27' W 010°15'3 5.2
2018-May-19 17:30N 37°30' W 010°15'3 5.1
2018-May-19 17:00N 37°32' W 010°16'2 5.0
2018-May-19 16:30N 37°35' W 010°16'2 4.9
2018-May-19 16:00N 37°37' W 010°16'3 5.1
2018-May-19 15:30N 37°40' W 010°17'3 5.1
2018-May-19 15:00N 37°42' W 010°17'3 5.1
2018-May-19 14:30N 37°45' W 010°17'3 5.1
2018-May-19 13:57N 37°48' W 010°17'5 5.0
2018-May-19 13:03N 37°52' W 010°18'1 5.3
2018-May-19 12:56N 37°53' W 010°18'2 5.1
2018-May-19 12:30N 37°55' W 010°18'3 5.2
2018-May-19 12:00N 37°58' W 010°18'3 5.4
2018-May-19 11:30N 38°00' W 010°19'5 5.3
2018-May-19 10:29N 38°06' W 010°19'3 5.5
2018-May-19 09:58N 38°09' W 010°18'3 5.5
2018-May-19 09:29N 38°11' W 010°18'6 5.4
2018-May-19 08:26N 38°17' W 010°18'4 5.2
2018-May-19 07:41N 38°21' W 010°18'1 5.0
2018-May-19 07:30N 38°22' W 010°18'3 5.1
2018-May-19 06:58N 38°24' W 010°17'49 5.3
2018-May-18 21:44N 39°13' W 010°15'2 4.8
2018-May-18 21:24N 39°15' W 010°15'3 5.2
2018-May-18 20:51N 39°17' W 010°15'2 5.3
2018-May-18 20:30N 39°19' W 010°14'3 5.0
2018-May-18 19:58N 39°22' W 010°14'2 5.0
2018-May-18 19:30N 39°24' W 010°14'3 4.8
2018-May-18 18:59N 39°27' W 010°14'11 5.0
2018-May-18 16:44N 39°38' W 010°14'  
Track history (hours):
 
Tides and Currents Weather Stations Pressure Air Temp Water Temp Dewpoint Dewpoint Depression Visibility Wind Speed Wind Dir Waves Ship Positions

Wil S

Last reported at 2018-May-25 13:35 UTC. Time now 2018-Jun-25 09:47 UTC.
Position N 27°41' W 015°21'.
Warning: this ship's position is 30 days out of date.

Length 32 m; draft 3.5 m.

Type: Tow > 200 m length. MMSI: 244630433.

Date/timePositionNaut miles runAvg speedWind from/ knotsBaromVisibWave heightAir tempDewpointWater temp
2018-May-25 13:35N 27°41' W 015°21'1 5.0
2018-May-25 13:27N 27°42' W 015°21'2 5.1
2018-May-25 13:00N 27°44' W 015°20'2 5.0
2018-May-25 12:30N 27°46' W 015°19'3 5.3
2018-May-25 12:00N 27°48' W 015°18'3 5.4
2018-May-25 11:30N 27°51' W 015°17'3 5.5
2018-May-25 11:00N 27°54' W 015°17'3 5.3
2018-May-25 10:30N 27°56' W 015°17'3 5.0
2018-May-25 10:00N 27°59' W 015°17'3 5.1
2018-May-25 09:30N 28°01' W 015°18'2 4.1
2018-May-25 09:00N 28°03' W 015°18'2 3.3
2018-May-25 08:30N 28°05' W 015°20'2 3.9
2018-May-25 08:00N 28°07' W 015°21'2 3.1
2018-May-25 07:30N 28°08' W 015°20'1 1.5
2018-May-25 07:00N 28°08' W 015°19'1 1.5
2018-May-25 06:30N 28°07' W 015°18'1 2.6
2018-May-25 06:00N 28°08' W 015°18'2 3.5
2018-May-25 05:30N 28°10' W 015°17'2 3.3
2018-May-25 05:00N 28°12' W 015°17'2 3.8
2018-May-25 04:30N 28°14' W 015°17'2 4.5
2018-May-25 04:00N 28°16' W 015°16'2 3.8
2018-May-25 03:30N 28°18' W 015°16'2 3.2
2018-May-25 03:00N 28°19' W 015°15'2 3.1
2018-May-25 02:30N 28°21' W 015°15'2 3.1
2018-May-25 02:00N 28°22' W 015°14'2 3.2
2018-May-25 01:30N 28°24' W 015°14'2 3.2
2018-May-25 01:00N 28°25' W 015°14'2 3.1
2018-May-25 00:30N 28°27' W 015°13'1 3.0
2018-May-25 00:00N 28°28' W 015°13'2 3.1
2018-May-24 23:30N 28°30' W 015°12'2 3.2
2018-May-24 22:59N 28°31' W 015°12'2 3.2
2018-May-24 22:30N 28°33' W 015°11'2 3.1
2018-May-24 22:00N 28°34' W 015°10'1 2.1
2018-May-24 21:29N 28°34' W 015°09'1 2.0
2018-May-24 21:00N 28°34' W 015°08'1 1.9
2018-May-24 20:30N 28°34' W 015°07'1 1.9
2018-May-24 20:00N 28°34' W 015°06'1 1.9
2018-May-24 19:30N 28°34' W 015°05'1 1.8
2018-May-24 19:00N 28°34' W 015°04'1 1.8
2018-May-24 18:30N 28°34' W 015°03'1 1.8
2018-May-24 18:00N 28°34' W 015°02'1 1.7
2018-May-24 17:30N 28°35' W 015°01'1 2.2
2018-May-24 17:00N 28°36' W 015°00'1 2.8
2018-May-24 16:30N 28°37' W 014°60'1 2.7
2018-May-24 15:59N 28°39' W 014°59'1 2.8
2018-May-24 15:30N 28°40' W 014°59'1 2.7
2018-May-24 15:00N 28°41' W 014°59'1 2.7
2018-May-24 14:29N 28°42' W 014°58'1 2.8
2018-May-24 14:00N 28°44' W 014°58'2 2.9
2018-May-24 13:29N 28°45' W 014°56'  
2018-May-20 06:46N 36°25' W 010°47'1 4.7
2018-May-20 06:30N 36°26' W 010°46'24 5.1
2018-May-20 01:51N 36°48' W 010°35'2 5.5
2018-May-20 01:27N 36°50' W 010°33'15 5.8
2018-May-19 22:54N 37°03' W 010°25'3 5.8
2018-May-19 22:22N 37°06' W 010°23'3 5.6
2018-May-19 21:52N 37°08' W 010°22'2 5.4
2018-May-19 21:30N 37°10' W 010°20'3 5.4
2018-May-19 21:00N 37°12' W 010°19'3 5.4
2018-May-19 20:30N 37°15' W 010°18'3 5.1
2018-May-19 20:00N 37°17' W 010°16'2 5.1
2018-May-19 19:30N 37°20' W 010°15'3 5.0
2018-May-19 19:00N 37°22' W 010°15'3 5.1
2018-May-19 18:29N 37°25' W 010°15'3 5.2
2018-May-19 18:00N 37°27' W 010°15'3 5.2
2018-May-19 17:30N 37°30' W 010°15'3 5.1
2018-May-19 17:00N 37°32' W 010°16'2 5.0
2018-May-19 16:30N 37°35' W 010°16'2 4.9
2018-May-19 16:00N 37°37' W 010°16'3 5.1
2018-May-19 15:30N 37°40' W 010°17'3 5.1
2018-May-19 15:00N 37°42' W 010°17'3 5.1
2018-May-19 14:30N 37°45' W 010°17'3 5.1
2018-May-19 13:57N 37°48' W 010°17'5 5.0
2018-May-19 13:03N 37°52' W 010°18'1 5.3
2018-May-19 12:56N 37°53' W 010°18'2 5.1
2018-May-19 12:30N 37°55' W 010°18'3 5.2
2018-May-19 12:00N 37°58' W 010°18'3 5.4
2018-May-19 11:30N 38°00' W 010°19'5 5.3
2018-May-19 10:29N 38°06' W 010°19'3 5.5
2018-May-19 09:58N 38°09' W 010°18'3 5.5
2018-May-19 09:29N 38°11' W 010°18'6 5.4
2018-May-19 08:26N 38°17' W 010°18'4 5.2
2018-May-19 07:41N 38°21' W 010°18'1 5.0
2018-May-19 07:30N 38°22' W 010°18'3 5.1
2018-May-19 06:58N 38°24' W 010°17'49 5.3
2018-May-18 21:44N 39°13' W 010°15'2 4.8
2018-May-18 21:24N 39°15' W 010°15'3 5.2
2018-May-18 20:51N 39°17' W 010°15'2 5.3
2018-May-18 20:30N 39°19' W 010°14'3 5.0
2018-May-18 19:58N 39°22' W 010°14'2 5.0
2018-May-18 19:30N 39°24' W 010°14'3 4.8
2018-May-18 18:59N 39°27' W 010°14'11 5.0
2018-May-18 16:44N 39°38' W 010°14'  

Dump ship's entire track history